Time;durP1;ratioP1;P1;durP2;ratioP2;P2;SDS_P1;SDS_P2;PMS_P1;PMS_P2;Temp;Humidity;BMP_temperature;BMP_pressure;BME280_temperature;BME280_humidity;BME280_pressure;Samples;Min_cycle;Max_cycle;Signal;HPM_P1;HPM_P2
2024/01/08 00:01:32;;;;;;;8.98;3.90;;;-0.90;99.90;;;;;;5009965;28;20037;-88
2024/01/08 00:03:58;;;;;;;8.85;3.65;;;-1.00;99.90;;;;;;5007456;28;20069;-87
2024/01/08 00:06:24;;;;;;;9.07;3.75;;;-1.00;99.90;;;;;;5008922;28;20065;-87
2024/01/08 00:08:50;;;;;;;9.73;3.90;;;-1.10;99.90;;;;;;5010380;28;20033;-87
2024/01/08 00:11:16;;;;;;;8.43;3.42;;;-1.00;99.90;;;;;;4993240;28;20502;-86
2024/01/08 00:13:41;;;;;;;10.75;3.83;;;-1.20;99.90;;;;;;5009236;28;20053;-86
2024/01/08 00:16:07;;;;;;;11.18;3.92;;;0.50;99.90;;;;;;4991473;28;20041;-86
2024/01/08 00:18:33;;;;;;;8.57;3.63;;;-1.30;99.90;;;;;;5026493;28;20036;-86
2024/01/08 00:20:59;;;;;;;9.07;3.60;;;-1.40;99.90;;;;;;4990886;28;20099;-87
2024/01/08 00:23:27;;;;;;;9.75;3.70;;;-1.30;99.90;;;;;;4993495;28;20276;-87
2024/01/08 00:25:52;;;;;;;8.98;3.85;;;0.20;99.90;;;;;;5005859;28;20065;-86
2024/01/08 00:28:18;;;;;;;8.48;3.50;;;-1.50;99.90;;;;;;4991083;28;20439;-87
2024/01/08 00:30:44;;;;;;;10.65;3.55;;;-1.60;99.90;;;;;;4981134;28;20136;-87
2024/01/08 00:33:09;;;;;;;8.45;3.55;;;-1.50;99.90;;;;;;5004099;28;20423;-86
2024/01/08 00:35:35;;;;;;;8.48;3.60;;;-1.50;99.90;;;;;;4972458;28;20038;-86
2024/01/08 00:38:01;;;;;;;9.13;3.85;;;-1.10;99.90;;;;;;5035150;28;20041;-87
2024/01/08 00:40:26;;;;;;;9.40;3.72;;;-0.70;99.90;;;;;;5025116;28;20037;-87
2024/01/08 00:42:52;;;;;;;8.85;3.92;;;-1.60;99.90;;;;;;4973941;28;20038;-87
2024/01/08 00:45:18;;;;;;;10.90;3.70;;;;;;;;;;5038370;28;20091;-87
2024/01/08 00:47:44;;;;;;;8.18;3.63;;;-1.60;99.90;;;;;;4988134;28;20133;-87
2024/01/08 00:50:13;;;;;;;8.80;3.72;;;-1.60;99.90;;;;;;5036225;28;20125;-87
2024/01/08 00:52:40;;;;;;;9.52;3.90;;;-1.60;99.90;;;;;;5004341;28;20100;-87
2024/01/08 00:55:06;;;;;;;9.60;3.90;;;-1.60;99.90;;;;;;5001353;28;20116;-87
2024/01/08 00:57:33;;;;;;;9.00;3.50;;;-1.70;99.90;;;;;;5001683;28;20049;-86
2024/01/08 00:59:58;;;;;;;9.57;3.50;;;-1.70;99.90;;;;;;5001897;28;20113;-87
2024/01/08 01:02:24;;;;;;;9.38;4.00;;;-1.60;99.90;;;;;;5037430;28;20125;-87
2024/01/08 01:04:50;;;;;;;10.13;4.20;;;-1.70;99.90;;;;;;5033748;28;20061;-87
2024/01/08 01:07:16;;;;;;;10.95;4.00;;;0.10;99.90;;;;;;4972554;28;20038;-87
2024/01/08 01:09:41;;;;;;;8.85;3.60;;;-1.60;99.90;;;;;;4971571;28;20660;-86
2024/01/08 01:12:07;;;;;;;9.75;3.70;;;-1.30;99.90;;;;;;5005079;28;20038;-87
2024/01/08 01:14:33;;;;;;;9.43;4.07;;;-1.60;99.90;;;;;;5035214;28;20052;-87
2024/01/08 01:16:59;;;;;;;9.43;3.50;;;-1.60;99.90;;;;;;4988545;28;20041;-86
2024/01/08 01:19:24;;;;;;;9.88;4.00;;;-1.60;99.90;;;;;;4985844;28;20056;-87
2024/01/08 01:21:50;;;;;;;9.40;3.78;;;-1.50;99.90;;;;;;5005757;28;20491;-86
2024/01/08 01:24:16;;;;;;;8.32;3.47;;;-1.50;99.90;;;;;;5026210;28;20430;-86
2024/01/08 01:26:42;;;;;;;9.85;4.00;;;-0.60;99.90;;;;;;4987682;28;21486;-87
2024/01/08 01:29:08;;;;;;;9.18;3.83;;;-0.20;99.90;;;;;;5003217;28;20034;-87
2024/01/08 01:31:34;;;;;;;9.07;3.72;;;-1.40;99.90;;;;;;5002257;28;20118;-87
2024/01/08 01:34:05;;;;;;;10.77;4.53;;;0.80;99.90;;;;;;5004169;28;20042;-87
2024/01/08 01:36:35;;;;;;;9.25;4.07;;;-1.40;99.90;;;;;;4988864;28;20112;-86
2024/01/08 01:39:02;;;;;;;8.68;3.90;;;-1.30;99.90;;;;;;4987062;28;20104;-86
2024/01/08 01:41:28;;;;;;;9.13;3.90;;;-1.30;99.90;;;;;;4984536;28;20092;-86
2024/01/08 01:43:54;;;;;;;9.43;3.88;;;-1.30;99.90;;;;;;5005051;28;20042;-86
2024/01/08 01:46:48;;;;;;;10.20;3.92;;;-1.30;99.90;;;;;;5020751;28;20113;-87
2024/01/08 01:49:19;;;;;;;9.68;4.57;;;-1.20;99.90;;;;;;5032150;28;20042;-87
2024/01/08 01:51:47;;;;;;;11.15;4.18;;;-1.20;99.90;;;;;;4999989;28;20487;-87
2024/01/08 01:54:15;;;;;;;10.48;4.85;;;-0.40;99.90;;;;;;4972039;28;20559;-86
2024/01/08 01:56:43;;;;;;;10.18;4.60;;;-0.20;99.90;;;;;;5032527;28;20037;-86
2024/01/08 01:59:10;;;;;;;9.75;3.88;;;-0.80;99.90;;;;;;5034876;28;20042;-86
2024/01/08 02:01:36;;;;;;;11.52;4.80;;;-1.10;99.90;;;;;;5003764;28;20128;-87
2024/01/08 02:04:03;;;;;;;10.57;4.70;;;-1.00;99.90;;;;;;5003390;28;20050;-87
2024/01/08 02:06:29;;;;;;;10.23;4.45;;;1.20;99.90;;;;;;4988151;28;20063;-86
2024/01/08 02:08:55;;;;;;;10.85;4.55;;;-1.10;99.90;;;;;;5019181;28;20062;-87
2024/01/08 02:11:22;;;;;;;9.90;4.30;;;-1.00;99.90;;;;;;4998783;28;20113;-88
2024/01/08 02:13:50;;;;;;;9.23;4.35;;;-1.00;99.90;;;;;;5002424;28;20050;-87
2024/01/08 02:16:19;;;;;;;10.20;4.32;;;-0.90;99.90;;;;;;5004220;28;20117;-86
2024/01/08 02:18:46;;;;;;;9.50;4.43;;;1.20;99.90;;;;;;5005185;28;20038;-87
2024/01/08 02:21:12;;;;;;;9.48;4.07;;;-1.00;99.90;;;;;;5002984;28;20262;-86
2024/01/08 02:23:38;;;;;;;9.57;4.20;;;-0.90;99.90;;;;;;5001053;28;20039;-87
2024/01/08 02:26:04;;;;;;;9.65;4.53;;;-0.90;99.90;;;;;;5028675;28;20101;-87
2024/01/08 02:28:30;;;;;;;11.32;5.30;;;-0.90;99.90;;;;;;5004809;28;20042;-87
2024/01/08 02:30:56;;;;;;;10.07;4.35;;;-0.80;99.90;;;;;;5018779;28;20632;-88
2024/01/08 02:33:22;;;;;;;9.70;4.75;;;-0.80;99.90;;;;;;5002790;28;20088;-87
2024/01/08 02:35:47;;;;;;;9.70;4.40;;;1.40;99.90;;;;;;5023722;28;20041;-87
2024/01/08 02:38:13;;;;;;;10.15;4.95;;;1.40;99.90;;;;;;4993405;28;20037;-87
2024/01/08 02:40:41;;;;;;;9.65;4.53;;;-0.70;99.90;;;;;;5017161;28;20105;-87
2024/01/08 02:43:07;;;;;;;9.48;4.47;;;-0.80;99.90;;;;;;5035826;28;20092;-87
2024/01/08 02:45:33;;;;;;;8.95;4.10;;;-0.70;99.90;;;;;;5028751;28;20042;-86
2024/01/08 02:47:59;;;;;;;9.25;4.10;;;-0.70;99.90;;;;;;4988247;28;20479;-86
2024/01/08 02:50:24;;;;;;;9.30;4.28;;;-0.70;99.90;;;;;;4970758;28;20072;-86
2024/01/08 02:52:50;;;;;;;9.65;4.03;;;-0.60;99.90;;;;;;5036309;28;20391;-87
2024/01/08 02:55:15;;;;;;;11.98;5.50;;;0.60;99.90;;;;;;4971529;28;20068;-87
2024/01/08 02:57:41;;;;;;;9.88;4.35;;;-0.70;99.90;;;;;;5002953;28;20034;-87
2024/01/08 03:00:08;;;;;;;8.82;3.63;;;-0.60;99.90;;;;;;5004547;28;20135;-86
2024/01/08 03:02:34;;;;;;;9.43;4.13;;;-0.60;99.90;;;;;;4954187;28;20096;-86
2024/01/08 03:05:00;;;;;;;10.02;4.28;;;-0.60;99.90;;;;;;5036997;28;20062;-87
2024/01/08 03:07:26;;;;;;;9.48;3.97;;;-0.60;99.90;;;;;;5025903;28;20123;-86
2024/01/08 03:09:56;;;;;;;9.50;4.10;;;-0.30;99.90;;;;;;5003811;28;20073;-86
2024/01/08 03:12:22;;;;;;;10.30;4.35;;;-0.60;99.90;;;;;;5016246;28;20040;-87
2024/01/08 03:14:48;;;;;;;9.90;4.38;;;-0.60;99.90;;;;;;5004400;28;20054;-86
2024/01/08 03:17:14;;;;;;;8.63;3.63;;;-0.70;99.90;;;;;;5003577;28;20118;-86
2024/01/08 03:19:39;;;;;;;9.05;4.05;;;-0.60;99.90;;;;;;5026700;28;20074;-87
2024/01/08 03:22:05;;;;;;;9.57;3.85;;;-0.60;99.90;;;;;;4973759;28;20118;-87
2024/01/08 03:24:31;;;;;;;10.75;4.70;;;-0.60;99.90;;;;;;5004609;28;20038;-88
2024/01/08 03:26:57;;;;;;;9.98;4.13;;;-0.60;99.90;;;;;;5027441;28;20042;-87
2024/01/08 03:29:23;;;;;;;10.00;4.07;;;-0.60;99.90;;;;;;5037862;28;20071;-87
2024/01/08 03:31:49;;;;;;;9.85;4.40;;;-0.50;99.90;;;;;;4974440;28;20429;-87
2024/01/08 03:34:15;;;;;;;8.82;3.80;;;-0.60;99.90;;;;;;5037368;28;20037;-87
2024/01/08 03:36:48;;;;;;;8.57;3.70;;;-0.60;99.90;;;;;;5007953;28;20038;-86
2024/01/08 03:39:17;;;;;;;;;;;-0.60;99.90;;;;;;5039911;28;20045;-86
2024/01/08 03:41:43;;;;;;;9.40;3.92;;;-0.70;99.90;;;;;;4989511;28;20419;-87
2024/01/08 03:44:10;;;;;;;9.98;3.70;;;1.20;99.90;;;;;;5005317;28;20038;-87
2024/01/08 03:46:39;;;;;;;10.52;4.13;;;-0.60;99.90;;;;;;5036554;28;20041;-85
2024/01/08 03:49:04;;;;;;;8.25;3.45;;;-0.60;99.90;;;;;;5037888;28;20037;-86
2024/01/08 03:51:31;;;;;;;10.15;3.78;;;-0.50;99.90;;;;;;5007366;28;20037;-87
2024/01/08 03:53:56;;;;;;;8.82;3.72;;;-0.60;99.90;;;;;;5004891;28;20038;-87
2024/01/08 03:56:22;;;;;;;8.10;3.45;;;0.40;99.90;;;;;;5004219;28;20037;-87
2024/01/08 03:58:48;;;;;;;8.20;3.45;;;-0.60;99.90;;;;;;5004389;28;20581;-87
2024/01/08 04:01:14;;;;;;;8.82;3.67;;;-0.60;99.90;;;;;;5007651;28;20038;-86
2024/01/08 04:03:40;;;;;;;8.65;3.70;;;-0.60;99.90;;;;;;4987074;28;20100;-87
2024/01/08 04:06:06;;;;;;;7.95;3.30;;;-0.70;99.90;;;;;;4973982;28;20683;-86
2024/01/08 04:08:32;;;;;;;9.98;3.80;;;-0.70;99.90;;;;;;4987536;28;20034;-87
2024/01/08 04:10:57;;;;;;;9.45;3.70;;;-0.70;99.90;;;;;;5021850;28;20510;-87
2024/01/08 04:13:23;;;;;;;8.90;3.67;;;-0.70;99.90;;;;;;5036421;28;20496;-87
2024/01/08 04:15:49;;;;;;;9.27;3.45;;;-0.70;99.90;;;;;;4986325;28;20042;-86
2024/01/08 04:18:14;;;;;;;9.43;3.78;;;1.00;99.90;;;;;;4973072;28;20034;-86
2024/01/08 04:20:40;;;;;;;9.85;3.33;;;0.80;99.90;;;;;;5004510;28;20041;-87
2024/01/08 04:23:06;;;;;;;8.80;3.75;;;-0.80;99.90;;;;;;5006518;28;20041;-87
2024/01/08 04:25:32;;;;;;;8.48;3.20;;;-0.80;99.90;;;;;;5036296;28;20050;-87
2024/01/08 04:27:57;;;;;;;7.80;3.33;;;-0.80;99.90;;;;;;4973393;28;20046;-86
2024/01/08 04:30:23;;;;;;;7.90;3.30;;;-0.80;99.90;;;;;;5034720;28;20042;-87
2024/01/08 04:32:49;;;;;;;8.52;3.33;;;-0.80;99.90;;;;;;5036632;28;20575;-86
2024/01/08 04:35:15;;;;;;;7.47;3.00;;;-0.80;99.90;;;;;;4992734;28;20327;-89
2024/01/08 04:37:41;;;;;;;8.25;2.92;;;-0.80;99.90;;;;;;5004723;28;20470;-87
2024/01/08 04:40:07;;;;;;;7.50;2.97;;;-0.90;99.90;;;;;;5022783;28;20037;-88
2024/01/08 04:42:33;;;;;;;8.13;3.13;;;-0.90;99.90;;;;;;5016528;28;20037;-87
2024/01/08 04:44:59;;;;;;;8.00;3.33;;;1.00;99.90;;;;;;4973767;28;20233;-87
2024/01/08 04:47:25;;;;;;;10.18;3.20;;;1.20;99.90;;;;;;5031631;28;20046;-87
2024/01/08 04:49:51;;;;;;;8.43;3.25;;;-1.10;99.90;;;;;;4988931;28;20030;-87
2024/01/08 04:52:16;;;;;;;8.25;3.20;;;-1.10;99.90;;;;;;5005463;28;20037;-87
2024/01/08 04:54:42;;;;;;;8.30;3.10;;;-1.20;99.90;;;;;;4971777;28;20101;-86
2024/01/08 04:57:09;;;;;;;6.88;2.72;;;0.30;99.90;;;;;;4972264;28;20121;-87
2024/01/08 04:59:41;;;;;;;8.13;3.03;;;0.30;99.90;;;;;;5021247;28;20045;-86
2024/01/08 05:02:08;;;;;;;8.30;3.15;;;-1.40;99.90;;;;;;5004496;28;20243;-87
2024/01/08 05:04:34;;;;;;;7.28;2.97;;;-1.50;99.90;;;;;;5018914;28;20062;-87
2024/01/08 05:07:00;;;;;;;8.45;3.17;;;-1.00;99.90;;;;;;5035624;28;20034;-86
2024/01/08 05:09:25;;;;;;;7.68;3.03;;;-1.60;99.90;;;;;;5034434;28;20384;-88
2024/01/08 05:11:51;;;;;;;7.82;3.10;;;-1.60;99.90;;;;;;5025338;28;20129;-86
2024/01/08 05:14:17;;;;;;;9.50;3.13;;;-1.60;99.90;;;;;;5006262;28;20125;-87
2024/01/08 05:16:42;;;;;;;8.02;3.17;;;-1.60;99.90;;;;;;4970846;28;20057;-87
2024/01/08 05:19:08;;;;;;;8.75;3.45;;;0.50;99.90;;;;;;5003276;28;20132;-86
2024/01/08 05:21:34;;;;;;;8.40;3.28;;;-1.60;99.90;;;;;;5004717;28;20408;-86
2024/01/08 05:23:59;;;;;;;9.10;3.30;;;-1.60;99.90;;;;;;5019500;28;20538;-85
2024/01/08 05:26:25;;;;;;;8.25;3.13;;;-0.90;99.90;;;;;;4987472;28;20045;-88
2024/01/08 05:28:51;;;;;;;8.55;3.55;;;-1.00;99.90;;;;;;5037249;28;20121;-86
2024/01/08 05:31:17;;;;;;;8.38;3.38;;;-1.70;99.90;;;;;;5017115;28;20046;-85
2024/01/08 05:33:43;;;;;;;9.68;3.58;;;-1.70;99.90;;;;;;5003564;28;20056;-87
2024/01/08 05:36:09;;;;;;;8.30;3.72;;;-1.70;99.90;;;;;;5016956;28;20042;-86
2024/01/08 05:38:36;;;;;;;9.90;3.33;;;-1.70;99.90;;;;;;5020374;28;20053;-87
2024/01/08 05:41:01;;;;;;;8.55;3.70;;;-1.80;99.90;;;;;;4987315;28;20092;-85
2024/01/08 05:43:27;;;;;;;8.98;3.45;;;-1.80;99.90;;;;;;5023906;28;20026;-86
2024/01/08 05:45:53;;;;;;;8.13;3.22;;;-1.00;99.90;;;;;;5015243;28;20277;-87
2024/01/08 05:48:19;;;;;;;8.30;3.50;;;-1.80;99.90;;;;;;5018473;28;20041;-87
2024/01/08 05:50:46;;;;;;;8.15;3.28;;;-1.40;99.90;;;;;;4986952;28;20116;-86
2024/01/08 05:53:13;;;;;;;9.07;3.30;;;-1.80;99.90;;;;;;5002626;28;20069;-85
2024/01/08 05:55:38;;;;;;;9.50;3.50;;;-1.80;99.90;;;;;;5033797;28;20598;-86
2024/01/08 05:58:04;;;;;;;8.18;3.20;;;-1.90;99.90;;;;;;4970128;28;20125;-86
2024/01/08 06:00:30;;;;;;;8.85;3.20;;;-1.70;99.90;;;;;;4984490;28;20045;-85
2024/01/08 06:02:56;;;;;;;8.98;3.15;;;-1.70;99.90;;;;;;4984861;28;20129;-85
2024/01/08 06:05:22;;;;;;;8.07;3.30;;;-0.10;99.90;;;;;;5011630;28;20125;-87
2024/01/08 06:07:48;;;;;;;8.60;3.33;;;0.40;99.90;;;;;;4970350;28;20038;-87
2024/01/08 06:10:15;;;;;;;9.55;3.13;;;-1.60;99.90;;;;;;4986521;28;20487;-86
2024/01/08 06:12:40;;;;;;;8.77;3.08;;;-1.60;99.90;;;;;;4985767;28;20476;-86
2024/01/08 06:15:06;;;;;;;7.65;3.15;;;-1.50;99.90;;;;;;4983787;28;20096;-85
2024/01/08 06:17:32;;;;;;;7.28;3.10;;;-1.60;99.90;;;;;;4987506;28;20041;-84
2024/01/08 06:19:58;;;;;;;8.57;3.35;;;0.20;99.90;;;;;;4998531;28;20052;-86
2024/01/08 06:22:23;;;;;;;9.65;3.33;;;-1.40;99.90;;;;;;4986471;28;20041;-87
2024/01/08 06:24:49;;;;;;;8.52;3.00;;;-1.30;99.90;;;;;;5019768;28;20431;-86
2024/01/08 06:27:15;;;;;;;8.57;3.13;;;-1.20;99.90;;;;;;4990049;28;20033;-86
2024/01/08 06:29:41;;;;;;;8.23;3.17;;;-1.30;99.90;;;;;;4968847;28;20795;-86
2024/01/08 06:32:07;;;;;;;9.20;3.35;;;-0.70;99.90;;;;;;4988597;28;20103;-85
2024/01/08 06:34:33;;;;;;;11.00;3.40;;;0.50;99.90;;;;;;5004999;28;20511;-86
2024/01/08 06:36:58;;;;;;;8.48;3.00;;;-1.20;99.90;;;;;;5033417;28;20042;-86
2024/01/08 06:39:26;;;;;;;9.20;3.60;;;0.10;99.90;;;;;;5002815;28;20429;-84
2024/01/08 06:41:52;;;;;;;9.73;3.13;;;-1.10;99.90;;;;;;5032843;28;20769;-86
2024/01/08 06:44:17;;;;;;;9.68;3.70;;;-1.00;99.90;;;;;;5032160;28;20458;-86
2024/01/08 06:46:43;;;;;;;8.98;3.55;;;-0.70;99.90;;;;;;5018106;28;20049;-85
2024/01/08 06:49:09;;;;;;;8.48;3.13;;;-1.00;99.90;;;;;;5014253;28;20092;-85
2024/01/08 06:51:40;;;;;;;8.32;3.40;;;-1.00;99.90;;;;;;5002237;28;20141;-85
2024/01/08 06:54:07;;;;;;;8.27;3.20;;;-1.00;99.90;;;;;;5006752;28;20046;-86
2024/01/08 06:56:32;;;;;;;8.07;3.10;;;-1.00;99.90;;;;;;5007794;28;20044;-86
2024/01/08 06:59:01;;;;;;;8.68;3.28;;;-1.00;99.90;;;;;;5020050;28;20403;-86
2024/01/08 07:01:28;;;;;;;9.85;3.88;;;-1.00;99.90;;;;;;5032753;28;20050;-86
2024/01/08 07:03:53;;;;;;;9.23;3.58;;;-1.00;99.90;;;;;;4972180;28;20053;-88
2024/01/08 07:06:19;;;;;;;10.60;3.25;;;-1.00;99.90;;;;;;4975370;28;20042;-86
2024/01/08 07:08:45;;;;;;;10.40;3.45;;;0.00;99.90;;;;;;5018714;28;20442;-86
2024/01/08 07:11:22;;;;;;;9.60;3.55;;;-1.00;99.90;;;;;;5003572;28;20045;-86
2024/01/08 07:13:49;;;;;;;8.75;3.40;;;-1.00;99.90;;;;;;5036781;28;20034;-87
2024/01/08 07:16:15;;;;;;;9.43;3.10;;;-1.00;99.90;;;;;;5006648;28;20046;-88
2024/01/08 07:18:41;;;;;;;9.27;3.22;;;0.80;99.90;;;;;;5018988;28;20038;-87
2024/01/08 07:21:09;;;;;;;7.78;2.97;;;-0.90;99.90;;;;;;5034910;28;20491;-86
2024/01/08 07:23:35;;;;;;;10.20;3.25;;;0.90;99.90;;;;;;5020293;28;20046;-86
2024/01/08 07:26:01;;;;;;;8.07;3.20;;;-0.80;99.90;;;;;;5020140;28;20121;-86
2024/01/08 07:28:28;;;;;;;7.40;2.80;;;-0.80;99.90;;;;;;5006694;28;20122;-88
2024/01/08 07:30:54;;;;;;;7.90;3.03;;;;;;;;;;5008008;28;20525;-86
2024/01/08 07:33:21;;;;;;;9.38;3.22;;;-0.80;99.90;;;;;;4991015;28;20046;-86
2024/01/08 07:35:47;;;;;;;8.30;3.42;;;-0.70;99.90;;;;;;5006854;28;20061;-87
2024/01/08 07:38:13;;;;;;;8.70;2.80;;;-0.70;99.90;;;;;;5005920;28;20041;-87
2024/01/08 07:40:38;;;;;;;8.80;3.10;;;-0.70;99.90;;;;;;4972880;28;20041;-89
2024/01/08 07:43:04;;;;;;;8.20;2.90;;;-0.70;99.90;;;;;;5037156;28;20503;-88
2024/01/08 07:45:30;;;;;;;8.20;3.10;;;0.70;99.90;;;;;;5034697;28;20051;-88
2024/01/08 07:47:58;;;;;;;9.40;3.42;;;;;;;;;;4990671;28;20156;-87
2024/01/08 07:50:24;;;;;;;9.32;2.90;;;1.30;99.90;;;;;;5000848;28;20553;-86
2024/01/08 07:52:51;;;;;;;10.57;3.33;;;-0.60;99.90;;;;;;5005437;28;21233;-85
2024/01/08 07:55:17;;;;;;;7.22;2.70;;;-0.60;99.90;;;;;;4989219;28;20525;-86
2024/01/08 07:57:43;;;;;;;8.63;3.40;;;1.00;99.90;;;;;;4990156;28;20053;-86
2024/01/08 08:00:11;;;;;;;7.80;2.67;;;-0.50;99.90;;;;;;5027350;28;20044;-88
2024/01/08 08:02:39;;;;;;;8.90;3.15;;;-0.50;99.90;;;;;;5006606;28;20045;-88
2024/01/08 08:05:05;;;;;;;6.90;2.67;;;-0.50;99.90;;;;;;5034945;28;20053;-87
2024/01/08 08:07:32;;;;;;;7.30;2.80;;;-0.50;99.90;;;;;;5004863;28;20038;-88
2024/01/08 08:09:58;;;;;;;7.82;3.03;;;-0.50;99.90;;;;;;4971157;28;20121;-87
2024/01/08 08:12:24;;;;;;;10.07;2.92;;;0.60;99.90;;;;;;4989551;28;20133;-87
2024/01/08 08:14:49;;;;;;;7.40;2.83;;;-0.50;99.90;;;;;;5017621;28;20074;-87
2024/01/08 08:17:16;;;;;;;8.25;3.03;;;-0.40;99.90;;;;;;5033485;28;20113;-86
2024/01/08 08:19:43;;;;;;;7.93;2.67;;;1.40;99.90;;;;;;4989492;28;20053;-86
2024/01/08 08:22:12;;;;;;;8.38;2.92;;;-0.10;99.90;;;;;;4974510;28;20038;-88
2024/01/08 08:24:41;;;;;;;7.75;3.40;;;-0.40;99.90;;;;;;4984067;28;20488;-88
2024/01/08 08:27:12;;;;;;;10.43;3.22;;;-0.40;99.90;;;;;;4990910;28;20034;-87
2024/01/08 08:29:38;;;;;;;8.73;2.70;;;-0.40;99.90;;;;;;4989766;28;20046;-87
2024/01/08 08:32:05;;;;;;;8.60;3.22;;;0.30;99.90;;;;;;4990700;28;20049;-88
2024/01/08 08:34:31;;;;;;;7.45;2.85;;;-0.30;99.90;;;;;;5019100;28;20046;-86
2024/01/08 08:36:57;;;;;;;8.60;2.85;;;;;;;;;;4989724;28;20415;-86
2024/01/08 08:39:23;;;;;;;8.07;2.65;;;-0.30;99.90;;;;;;5007173;28;20066;-86
2024/01/08 08:41:48;;;;;;;7.38;2.85;;;-0.30;99.90;;;;;;5025079;28;20046;-86
2024/01/08 08:44:15;;;;;;;7.95;2.92;;;-0.30;99.90;;;;;;5019616;28;20097;-86
2024/01/08 08:46:41;;;;;;;8.32;2.85;;;-0.30;99.90;;;;;;4973700;28;20125;-88
2024/01/08 08:49:06;;;;;;;9.07;3.00;;;1.00;99.90;;;;;;4989372;28;20058;-89
2024/01/08 08:51:36;;;;;;;10.35;3.50;;;0.00;99.90;;;;;;5025109;28;20132;-88
2024/01/08 08:54:03;;;;;;;8.48;2.92;;;-0.30;99.90;;;;;;5004094;28;20116;-88
2024/01/08 08:56:33;;;;;;;8.95;2.90;;;-0.20;99.90;;;;;;4988532;28;20045;-88
2024/01/08 08:58:59;;;;;;;8.32;2.92;;;1.40;99.90;;;;;;5030382;28;20082;-88
2024/01/08 09:01:28;;;;;;;9.27;3.25;;;1.00;99.90;;;;;;5006305;28;20029;-90
2024/01/08 09:03:54;;;;;;;8.00;2.80;;;-0.10;99.90;;;;;;5032779;28;20038;-90
2024/01/08 09:06:23;;;;;;;7.60;2.80;;;-0.10;99.90;;;;;;5005483;28;20061;-88
2024/01/08 09:08:50;;;;;;;7.32;2.47;;;0.00;99.90;;;;;;4972806;28;20151;-90
2024/01/08 09:11:19;;;;;;;6.20;2.17;;;-0.10;99.90;;;;;;5005991;28;20176;-88
2024/01/08 09:13:47;;;;;;;5.55;2.25;;;-0.30;99.90;;;;;;5026235;28;20414;-89
2024/01/08 09:16:16;;;;;;;7.70;2.33;;;0.00;99.90;;;;;;5015453;28;20061;-88
2024/01/08 09:18:43;;;;;;;7.22;2.50;;;0.00;99.90;;;;;;4989065;28;20036;-89
2024/01/08 09:21:12;;;;;;;9.60;2.40;;;0.00;99.90;;;;;;5021261;28;20073;-88
2024/01/08 09:23:40;;;;;;;7.47;2.90;;;0.10;99.90;;;;;;5024701;28;20139;-87
2024/01/08 09:26:06;;;;;;;8.63;2.42;;;0.10;99.90;;;;;;5003171;28;20070;-87
2024/01/08 09:28:32;;;;;;;8.90;2.60;;;2.10;99.90;;;;;;5035673;28;20049;-87
2024/01/08 09:31:03;;;;;;;7.30;2.33;;;0.00;99.90;;;;;;4989689;28;20046;-87
2024/01/08 09:33:30;;;;;;;10.18;2.72;;;0.20;99.90;;;;;;5024274;28;20495;-88
2024/01/08 09:35:56;;;;;;;7.47;2.65;;;1.40;99.90;;;;;;4989918;28;20093;-87
2024/01/08 09:38:22;;;;;;;10.73;2.70;;;0.30;99.90;;;;;;5017229;28;20120;-88
2024/01/08 09:40:48;;;;;;;6.55;2.30;;;1.20;99.90;;;;;;5006520;28;20495;-89
2024/01/08 09:43:19;;;;;;;7.68;2.70;;;1.20;99.90;;;;;;5023410;28;20046;-90
2024/01/08 09:46:00;;;;;;;6.82;2.33;;;0.40;99.90;;;;;;4991321;28;20088;-88
2024/01/08 09:48:26;;;;;;;6.60;2.30;;;0.30;99.90;;;;;;5009158;28;20046;-87
2024/01/08 09:50:53;;;;;;;8.65;2.90;;;0.30;99.90;;;;;;4990321;28;20037;-89
2024/01/08 09:53:19;;;;;;;7.78;2.80;;;0.20;99.90;;;;;;5015620;28;20042;-89
2024/01/08 09:55:46;;;;;;;9.85;2.92;;;0.20;99.90;;;;;;5003428;28;20108;-89
2024/01/08 09:58:13;;;;;;;8.48;2.72;;;0.20;99.90;;;;;;5020912;28;20046;-89
2024/01/08 10:00:42;;;;;;;7.05;2.60;;;0.20;99.90;;;;;;4972813;28;20120;-91
2024/01/08 10:03:08;;;;;;;6.15;2.45;;;0.20;99.90;;;;;;4978717;28;20073;-87
2024/01/08 10:05:35;;;;;;;7.60;2.28;;;1.00;99.90;;;;;;4975553;28;20076;-91
2024/01/08 10:08:01;;;;;;;6.93;2.60;;;2.20;99.90;;;;;;4989610;28;20034;-89
2024/01/08 10:10:29;;;;;;;8.40;2.83;;;0.20;99.90;;;;;;5006960;28;20130;-90
2024/01/08 10:12:55;;;;;;;8.40;2.80;;;1.00;99.90;;;;;;4992364;28;20045;-92
2024/01/08 10:15:22;;;;;;;7.88;2.78;;;1.90;99.90;;;;;;4992792;28;20080;-88
2024/01/08 10:17:48;;;;;;;10.27;2.92;;;0.20;99.90;;;;;;5026853;28;20042;-89
2024/01/08 10:20:15;;;;;;;7.68;2.60;;;0.20;99.90;;;;;;4964469;28;20523;-89
2024/01/08 10:22:42;;;;;;;8.27;3.20;;;-0.20;99.90;;;;;;4991402;28;20037;-89
2024/01/08 10:25:08;;;;;;;6.43;2.53;;;0.30;99.90;;;;;;4972760;28;20480;-90
2024/01/08 10:27:34;;;;;;;7.95;2.88;;;0.30;99.90;;;;;;5001735;28;20077;-87
2024/01/08 10:29:59;;;;;;;8.43;2.90;;;2.40;99.90;;;;;;4982568;28;20089;-89
2024/01/08 10:32:25;;;;;;;7.95;2.50;;;0.40;99.90;;;;;;5009239;28;20113;-88
2024/01/08 10:34:52;;;;;;;8.65;3.00;;;0.40;99.90;;;;;;5014879;28;20491;-88
2024/01/08 10:37:21;;;;;;;7.78;2.50;;;0.40;99.90;;;;;;5013091;28;20034;-88
2024/01/08 10:39:49;;;;;;;7.88;2.60;;;1.00;99.90;;;;;;5017939;28;20129;-89
2024/01/08 10:42:15;;;;;;;7.63;3.00;;;1.50;99.90;;;;;;5045056;28;20467;-89
2024/01/08 10:44:41;;;;;;;7.97;2.72;;;0.40;99.90;;;;;;5036803;28;20121;-90
2024/01/08 10:47:38;;;;;;;7.97;3.05;;;0.30;99.90;;;;;;4997197;28;20130;-94
2024/01/08 10:50:07;;;;;;;6.85;2.67;;;0.40;99.90;;;;;;5015662;28;20416;-89
2024/01/08 10:52:35;;;;;;;7.25;2.63;;;0.40;99.90;;;;;;4982214;28;20033;-90
2024/01/08 10:55:01;;;;;;;7.55;2.63;;;0.40;99.90;;;;;;4993936;28;20089;-90
2024/01/08 10:57:56;;;;;;;8.02;2.75;;;1.30;99.90;;;;;;5012809;28;20052;-89
2024/01/08 11:00:23;;;;;;;6.80;2.53;;;0.40;99.90;;;;;;5005157;28;20056;-90
2024/01/08 11:02:49;;;;;;;8.27;2.65;;;0.40;99.90;;;;;;4996405;28;20038;-90
2024/01/08 11:05:16;;;;;;;7.10;2.60;;;0.50;99.90;;;;;;4995014;28;20081;-88
2024/01/08 11:07:47;;;;;;;6.47;2.38;;;0.50;99.90;;;;;;5020246;28;20037;-90
2024/01/08 11:10:12;;;;;;;7.18;2.60;;;0.50;99.90;;;;;;5001715;28;20054;-89
2024/01/08 11:12:57;;;;;;;7.40;2.50;;;-0.10;99.90;;;;;;5025694;28;20113;-89
2024/01/08 11:15:27;;;;;;;5.97;2.40;;;0.60;99.90;;;;;;5011123;28;20068;-90
2024/01/08 11:17:54;;;;;;;8.40;2.45;;;0.80;99.90;;;;;;4998359;28;20040;-89
2024/01/08 11:20:45;;;;;;;7.13;2.42;;;0.70;99.90;;;;;;4998278;28;20502;-90
2024/01/08 11:23:34;;;;;;;5.68;2.33;;;0.70;99.90;;;;;;5012303;28;20037;-87
2024/01/08 11:26:02;;;;;;;7.80;2.50;;;0.80;99.90;;;;;;5008501;28;20446;-90
2024/01/08 11:28:35;;;;;;;9.73;2.67;;;2.60;99.90;;;;;;5025014;28;20545;-88
2024/01/08 11:31:04;;;;;;;7.38;2.53;;;1.00;99.90;;;;;;5022404;28;20415;-90
2024/01/08 11:34:04;;;;;;;7.32;2.50;;;2.30;99.90;;;;;;4995981;28;20053;-89
2024/01/08 11:36:50;;;;;;;6.57;2.55;;;1.10;99.90;;;;;;5030444;28;20053;-90
2024/01/08 11:39:20;;;;;;;7.65;2.70;;;1.20;99.90;;;;;;5016610;28;20136;-90
2024/01/08 11:41:46;;;;;;;7.85;2.90;;;2.80;99.90;;;;;;4997081;28;20046;-90
2024/01/08 11:44:16;;;;;;;7.63;2.88;;;1.20;99.90;;;;;;5008108;28;20053;-89
2024/01/08 11:46:43;;;;;;;8.77;3.05;;;1.10;99.90;;;;;;5008371;28;20602;-90
2024/01/08 11:49:09;;;;;;;6.95;2.60;;;2.00;99.90;;;;;;5005457;28;20193;-90
2024/01/08 11:51:41;;;;;;;7.38;2.67;;;1.10;99.90;;;;;;4992289;28;20174;-90
2024/01/08 11:54:10;;;;;;;5.68;2.20;;;1.20;99.90;;;;;;4978580;28;20128;-89
2024/01/08 11:56:37;;;;;;;7.70;2.33;;;1.20;99.90;;;;;;5028087;28;20399;-88
2024/01/08 11:59:02;;;;;;;7.88;2.85;;;1.20;99.90;;;;;;4978320;28;20514;-90
2024/01/08 12:01:28;;;;;;;7.88;2.75;;;0.50;99.90;;;;;;5018551;28;20038;-88
2024/01/08 12:03:59;;;;;;;7.30;2.83;;;1.10;99.90;;;;;;5006644;28;20034;-88
2024/01/08 12:06:26;;;;;;;6.57;2.30;;;1.90;99.90;;;;;;5006306;28;20050;-89
2024/01/08 12:08:53;;;;;;;6.47;2.42;;;2.50;99.90;;;;;;5027701;28;20030;-87
2024/01/08 12:11:19;;;;;;;7.72;2.58;;;2.70;99.90;;;;;;5043364;28;20049;-87
2024/01/08 12:13:46;;;;;;;7.10;2.47;;;2.10;99.90;;;;;;5007398;28;20523;-89
2024/01/08 12:16:13;;;;;;;7.97;3.05;;;1.90;99.90;;;;;;4992216;28;20069;-87
2024/01/08 12:18:41;;;;;;;8.70;3.08;;;2.50;99.90;;;;;;4991717;28;20049;-88
2024/01/08 12:21:08;;;;;;;8.30;3.00;;;1.40;99.90;;;;;;5022165;28;20098;-87
2024/01/08 12:23:34;;;;;;;7.05;2.75;;;2.50;99.90;;;;;;4988404;28;20037;-88
2024/01/08 12:26:00;;;;;;;7.93;3.08;;;1.40;99.90;;;;;;5008914;28;20115;-87
2024/01/08 12:28:30;;;;;;;7.57;2.65;;;1.40;99.90;;;;;;4989769;28;20129;-87
2024/01/08 12:30:58;;;;;;;7.15;2.60;;;2.30;99.90;;;;;;5016776;28;20144;-89
2024/01/08 12:33:25;;;;;;;8.55;2.70;;;2.80;99.90;;;;;;5005331;28;20038;-88
2024/01/08 12:35:54;;;;;;;7.70;2.58;;;3.40;99.90;;;;;;5005923;28;20121;-88
2024/01/08 12:38:20;;;;;;;8.88;2.60;;;1.80;99.90;;;;;;5037295;28;20038;-90
2024/01/08 12:40:51;;;;;;;7.53;2.58;;;1.70;99.90;;;;;;5026683;28;20042;-90
2024/01/08 12:43:18;;;;;;;7.38;2.60;;;;;;;;;;4989734;28;21292;-89
2024/01/08 12:45:49;;;;;;;6.60;2.55;;;1.60;99.90;;;;;;5019757;28;20046;-88
2024/01/08 12:48:17;;;;;;;7.00;2.40;;;2.20;99.90;;;;;;5036559;28;20026;-89
2024/01/08 12:50:43;;;;;;;6.60;2.53;;;1.40;99.90;;;;;;5038737;28;20037;-89